Time;durP1;ratioP1;P1;durP2;ratioP2;P2;SDS_P1;SDS_P2;PMS_P1;PMS_P2;Temp;Humidity;BMP_temperature;BMP_pressure;BME280_temperature;BME280_humidity;BME280_pressure;Samples;Min_cycle;Max_cycle;Signal;HPM_P1;HPM_P2
2022/11/26 00:00:29;;;;;;;14.70;3.25;;;8.70;99.90;;;;;;5062792;28;20031;-81
2022/11/26 00:02:55;;;;;;;11.18;3.17;;;8.70;99.90;;;;;;5061444;28;20036;-78
2022/11/26 00:05:22;;;;;;;22.02;4.53;;;8.70;99.90;;;;;;5057020;28;20037;-80
2022/11/26 00:07:54;;;;;;;17.02;3.72;;;8.80;99.90;;;;;;5061501;28;20033;-80
2022/11/26 00:10:27;;;;;;;15.15;3.65;;;8.80;99.90;;;;;;5060124;28;20028;-80
2022/11/26 00:12:53;;;;;;;17.80;3.90;;;8.80;99.90;;;;;;5056350;28;20455;-80
2022/11/26 00:15:21;;;;;;;20.20;4.25;;;8.80;99.90;;;;;;5057464;28;20029;-80
2022/11/26 00:17:48;;;;;;;16.73;3.63;;;8.80;99.90;;;;;;5061073;28;20086;-80
2022/11/26 00:20:14;;;;;;;12.05;3.83;;;8.80;99.90;;;;;;5062063;28;20028;-80
2022/11/26 00:22:50;;;;;;;15.38;3.58;;;8.80;99.90;;;;;;5063273;28;20033;-78
2022/11/26 00:25:22;;;;;;;21.88;4.82;;;8.80;99.90;;;;;;5059792;28;20374;-80
2022/11/26 00:27:49;;;;;;;17.67;4.30;;;8.80;99.90;;;;;;5065769;28;20039;-80
2022/11/26 00:30:20;;;;;;;24.80;4.63;;;8.80;99.90;;;;;;5053852;28;20032;-80
2022/11/26 00:32:46;;;;;;;18.95;4.55;;;8.80;99.90;;;;;;5064041;28;20534;-80
2022/11/26 00:35:12;;;;;;;22.30;4.40;;;8.90;99.90;;;;;;5060462;28;20056;-81
2022/11/26 00:38:00;;;;;;;15.15;4.03;;;8.90;99.90;;;;;;5057659;28;20039;-80
2022/11/26 00:40:29;;;;;;;20.10;3.95;;;8.90;99.90;;;;;;5054222;28;20057;-80
2022/11/26 00:42:56;;;;;;;21.23;4.38;;;8.90;99.90;;;;;;5057346;28;20032;-79
2022/11/26 00:45:24;;;;;;;18.73;3.72;;;8.90;99.90;;;;;;5065097;28;20552;-79
2022/11/26 00:47:50;;;;;;;19.63;4.47;;;8.90;99.90;;;;;;5058300;28;20492;-80
2022/11/26 00:50:23;;;;;;;19.40;5.05;;;8.90;99.90;;;;;;5056361;28;20448;-80
2022/11/26 00:52:55;;;;;;;25.17;5.57;;;8.80;99.90;;;;;;5051149;28;20029;-80
2022/11/26 00:55:43;;;;;;;30.20;4.95;;;8.80;99.90;;;;;;5058140;28;20044;-80
2022/11/26 00:58:26;;;;;;;16.58;4.35;;;8.80;99.90;;;;;;5060785;28;20072;-79
2022/11/26 01:00:52;;;;;;;26.30;4.07;;;8.80;99.90;;;;;;5061790;28;20532;-80
2022/11/26 01:03:18;;;;;;;23.55;3.70;;;8.80;99.90;;;;;;5059287;28;20078;-79
2022/11/26 01:05:47;;;;;;;23.10;4.60;;;8.80;99.90;;;;;;5063523;28;20025;-80
2022/11/26 01:08:30;;;;;;;37.97;5.05;;;8.80;99.90;;;;;;5054334;28;20445;-80
2022/11/26 01:11:00;;;;;;;14.93;4.18;;;8.80;99.90;;;;;;5056062;28;20033;-78
2022/11/26 01:13:26;;;;;;;24.05;4.93;;;8.90;99.90;;;;;;5065042;28;20044;-78
2022/11/26 01:15:53;;;;;;;24.25;4.10;;;8.90;99.90;;;;;;5065291;28;20867;-80
2022/11/26 01:18:20;;;;;;;24.42;5.35;;;8.90;99.90;;;;;;5058636;28;20048;-80
2022/11/26 01:20:49;;;;;;;24.17;4.35;;;8.90;99.90;;;;;;5057031;28;20028;-79
2022/11/26 01:23:17;;;;;;;21.02;3.72;;;8.90;99.90;;;;;;5060175;28;20111;-80
2022/11/26 01:25:44;;;;;;;20.60;4.80;;;8.90;99.90;;;;;;5057909;28;20162;-80
2022/11/26 01:28:11;;;;;;;20.77;3.67;;;8.90;99.90;;;;;;5054978;28;20389;-79
2022/11/26 01:30:38;;;;;;;16.02;3.58;;;9.00;99.90;;;;;;5059572;28;20108;-80
2022/11/26 01:33:03;;;;;;;29.20;4.20;;;9.00;99.90;;;;;;5059655;28;20070;-79
2022/11/26 01:35:30;;;;;;;15.73;3.90;;;9.00;99.90;;;;;;5060921;28;20032;-80
2022/11/26 01:37:55;;;;;;;29.17;4.97;;;8.90;99.90;;;;;;5059390;28;20036;-80
2022/11/26 01:40:24;;;;;;;17.55;3.75;;;8.90;99.90;;;;;;5057244;28;20060;-80
2022/11/26 01:42:58;;;;;;;21.63;3.47;;;8.90;99.90;;;;;;5055695;28;20124;-80
2022/11/26 01:45:24;;;;;;;23.77;4.10;;;8.90;99.90;;;;;;5060534;28;20040;-80
2022/11/26 01:47:50;;;;;;;21.70;5.05;;;8.80;99.90;;;;;;5058321;28;20124;-80
2022/11/26 01:50:30;;;;;;;21.33;3.70;;;8.80;99.90;;;;;;5055276;28;20052;-80
2022/11/26 01:53:10;;;;;;;13.80;3.28;;;8.80;99.90;;;;;;5059730;28;20051;-80
2022/11/26 01:55:43;;;;;;;20.98;3.50;;;8.70;99.90;;;;;;5049547;28;20033;-78
2022/11/26 01:58:12;;;;;;;23.88;5.10;;;8.80;99.90;;;;;;5053647;28;20087;-79
2022/11/26 02:00:38;;;;;;;18.35;3.72;;;8.80;99.90;;;;;;5058201;28;20028;-80
2022/11/26 02:03:04;;;;;;;21.38;4.35;;;8.80;99.90;;;;;;5058138;28;20366;-80
2022/11/26 02:05:35;;;;;;;32.80;4.53;;;8.80;99.90;;;;;;5053313;28;20462;-80
2022/11/26 02:08:01;;;;;;;27.67;4.20;;;8.70;99.90;;;;;;5056390;28;20033;-80
2022/11/26 02:10:27;;;;;;;26.35;4.20;;;8.70;99.90;;;;;;5062593;28;20385;-80
2022/11/26 02:12:53;;;;;;;22.73;4.05;;;8.80;99.90;;;;;;5066209;28;20029;-80
2022/11/26 02:15:19;;;;;;;27.77;4.82;;;8.80;99.90;;;;;;5057402;28;20025;-79
2022/11/26 02:17:48;;;;;;;21.33;3.60;;;8.80;99.90;;;;;;5052008;28;20029;-80
2022/11/26 02:20:32;;;;;;;23.00;3.63;;;8.70;99.90;;;;;;5056253;28;20036;-80
2022/11/26 02:23:26;;;;;;;23.50;3.50;;;8.70;99.90;;;;;;5055955;28;20116;-80
2022/11/26 02:26:23;;;;;;;26.02;4.25;;;8.70;99.90;;;;;;5052989;28;20061;-80
2022/11/26 02:29:08;;;;;;;18.13;3.90;;;8.70;99.90;;;;;;5056705;28;20029;-80
2022/11/26 02:31:54;;;;;;;32.97;5.17;;;8.70;99.90;;;;;;5061988;28;20122;-80
2022/11/26 02:34:33;;;;;;;;;;;8.70;99.90;;;;;;5061106;28;20040;-80
2022/11/26 02:37:07;;;;;;;19.35;3.40;;;8.70;99.90;;;;;;5062149;28;19909;-80
2022/11/26 02:39:33;;;;;;;40.40;5.95;;;8.60;99.90;;;;;;5060663;28;20149;-80
2022/11/26 02:42:02;;;;;;;14.65;2.92;;;8.60;99.90;;;;;;5053598;28;20054;-80
2022/11/26 02:44:40;;;;;;;18.58;3.33;;;8.60;99.90;;;;;;5056338;28;20028;-80
2022/11/26 02:47:13;;;;;;;28.38;5.00;;;8.60;99.90;;;;;;5053313;28;20155;-80
2022/11/26 02:49:41;;;;;;;30.70;3.80;;;8.60;99.90;;;;;;5058812;28;20048;-80
2022/11/26 02:52:08;;;;;;;21.20;3.22;;;8.60;99.90;;;;;;5054797;28;20589;-79
2022/11/26 02:54:36;;;;;;;22.52;3.38;;;8.60;99.90;;;;;;5059981;28;20579;-80
2022/11/26 02:57:07;;;;;;;23.60;3.92;;;8.50;99.90;;;;;;5053086;28;20049;-80
2022/11/26 02:59:34;;;;;;;34.35;4.75;;;8.40;99.90;;;;;;5054265;28;20138;-80
2022/11/26 03:02:06;;;;;;;26.15;3.15;;;8.40;99.90;;;;;;5058594;28;20035;-79
2022/11/26 03:04:36;;;;;;;27.52;4.20;;;8.40;99.90;;;;;;5054324;28;20500;-79
2022/11/26 03:07:04;;;;;;;21.52;3.75;;;8.40;99.90;;;;;;5058470;28;20032;-79
2022/11/26 03:09:55;;;;;;;24.00;3.22;;;8.30;99.90;;;;;;5057986;28;20502;-80
2022/11/26 03:12:21;;;;;;;19.10;2.75;;;8.30;99.90;;;;;;5059326;28;20029;-80
2022/11/26 03:14:47;;;;;;;21.90;3.35;;;8.30;99.90;;;;;;5061926;28;20031;-79
2022/11/26 03:17:13;;;;;;;25.08;4.78;;;8.30;99.90;;;;;;5060075;28;20024;-79
2022/11/26 03:19:38;;;;;;;29.17;3.92;;;8.30;99.90;;;;;;5062753;28;20090;-79
2022/11/26 03:22:06;;;;;;;28.98;3.55;;;8.30;99.90;;;;;;5060732;28;20385;-80
2022/11/26 03:24:32;;;;;;;26.27;4.30;;;8.30;99.90;;;;;;5059676;28;20043;-80
2022/11/26 03:26:58;;;;;;;29.13;3.42;;;8.30;99.90;;;;;;5059751;28;20033;-80
2022/11/26 03:29:24;;;;;;;30.83;4.32;;;8.30;99.90;;;;;;5055450;28;20046;-79
2022/11/26 03:31:49;;;;;;;27.02;4.47;;;8.30;99.90;;;;;;5058980;28;20115;-80
2022/11/26 03:34:16;;;;;;;23.98;4.22;;;8.30;99.90;;;;;;5061412;28;20017;-79
2022/11/26 03:36:42;;;;;;;24.10;4.07;;;8.30;99.90;;;;;;5062991;28;20063;-80
2022/11/26 03:39:08;;;;;;;30.58;3.75;;;8.30;99.90;;;;;;5062715;28;20505;-79
2022/11/26 03:41:33;;;;;;;26.48;3.80;;;8.30;99.90;;;;;;5059241;28;20056;-80
2022/11/26 03:43:59;;;;;;;36.55;5.85;;;8.40;99.90;;;;;;5061596;28;20036;-80
2022/11/26 03:46:24;;;;;;;32.53;3.78;;;8.40;99.90;;;;;;5062849;28;20040;-79
2022/11/26 03:48:51;;;;;;;18.23;3.10;;;8.40;99.90;;;;;;5059014;28;20028;-79
2022/11/26 03:51:16;;;;;;;27.25;3.63;;;8.40;99.90;;;;;;5065619;28;20032;-80
2022/11/26 03:53:42;;;;;;;23.05;4.18;;;8.40;99.90;;;;;;5055518;28;20048;-79
2022/11/26 03:56:07;;;;;;;22.77;4.32;;;8.30;99.90;;;;;;5060138;28;20019;-78
2022/11/26 03:58:34;;;;;;;30.92;3.80;;;8.40;99.90;;;;;;5062994;28;20067;-79
2022/11/26 04:01:05;;;;;;;34.00;3.88;;;8.40;99.90;;;;;;5054734;28;20035;-79
2022/11/26 04:03:31;;;;;;;29.30;4.25;;;8.40;99.90;;;;;;5059612;28;20035;-80
2022/11/26 04:05:56;;;;;;;23.10;3.40;;;8.30;99.90;;;;;;5061218;28;20363;-80
2022/11/26 04:08:22;;;;;;;31.85;3.90;;;8.30;99.90;;;;;;5057531;28;20476;-80
2022/11/26 04:10:47;;;;;;;22.80;3.75;;;8.30;99.90;;;;;;5062473;28;20124;-80
2022/11/26 04:13:13;;;;;;;29.80;3.95;;;8.30;99.90;;;;;;5054324;28;20024;-80
2022/11/26 04:15:39;;;;;;;26.33;3.53;;;8.30;99.90;;;;;;5056574;28;20100;-79
2022/11/26 04:18:05;;;;;;;24.60;4.25;;;8.30;99.90;;;;;;5052046;28;20303;-80
2022/11/26 04:20:31;;;;;;;24.30;3.50;;;8.30;99.90;;;;;;5056531;28;20044;-80
2022/11/26 04:22:56;;;;;;;24.95;3.47;;;8.30;99.90;;;;;;5062039;28;20496;-79
2022/11/26 04:25:22;;;;;;;37.53;4.13;;;8.20;99.90;;;;;;5053560;28;20035;-80
2022/11/26 04:27:47;;;;;;;20.63;3.67;;;8.20;99.90;;;;;;5064387;28;20056;-81
2022/11/26 04:30:14;;;;;;;19.38;3.92;;;8.30;99.90;;;;;;5059837;28;20055;-80
2022/11/26 04:32:39;;;;;;;29.50;4.00;;;8.30;99.90;;;;;;5061173;28;20032;-80
2022/11/26 04:35:07;;;;;;;22.98;4.28;;;8.30;99.90;;;;;;5062776;28;20029;-79
2022/11/26 04:37:33;;;;;;;17.58;3.83;;;8.30;99.90;;;;;;5058322;28;20056;-80
2022/11/26 04:39:59;;;;;;;32.65;5.22;;;8.30;99.90;;;;;;5056998;28;20501;-80
2022/11/26 04:42:24;;;;;;;22.05;3.90;;;8.30;99.90;;;;;;5056003;28;20033;-79
2022/11/26 04:44:50;;;;;;;17.25;3.53;;;8.30;99.90;;;;;;5060546;28;20473;-80
2022/11/26 04:47:19;;;;;;;21.90;3.78;;;8.30;99.90;;;;;;5062653;28;20501;-79
2022/11/26 04:49:44;;;;;;;32.83;3.95;;;8.30;99.90;;;;;;5059304;28;20685;-80
2022/11/26 04:52:10;;;;;;;18.60;3.13;;;8.30;99.90;;;;;;5062984;28;20177;-80
2022/11/26 04:54:36;;;;;;;29.33;5.05;;;8.20;99.90;;;;;;5058150;28;20039;-80
2022/11/26 04:57:02;;;;;;;21.92;3.42;;;8.20;99.90;;;;;;5059732;28;20044;-79
2022/11/26 04:59:28;;;;;;;26.27;4.93;;;8.20;99.90;;;;;;5063194;28;20058;-80
2022/11/26 05:01:53;;;;;;;18.83;3.50;;;8.30;99.90;;;;;;5058810;28;20036;-81
2022/11/26 05:04:19;;;;;;;22.98;5.53;;;8.30;99.90;;;;;;5057284;28;20486;-80
2022/11/26 05:06:45;;;;;;;23.30;3.83;;;8.20;99.90;;;;;;5058246;28;20379;-80
2022/11/26 05:09:10;;;;;;;20.48;3.17;;;8.10;99.90;;;;;;5062460;28;20028;-80
2022/11/26 05:11:36;;;;;;;26.38;4.43;;;8.20;99.90;;;;;;5057507;28;20386;-80
2022/11/26 05:14:02;;;;;;;15.45;2.72;;;8.20;99.90;;;;;;5052870;28;20107;-80
2022/11/26 05:16:27;;;;;;;24.75;2.97;;;8.10;99.90;;;;;;5061555;28;20106;-80
2022/11/26 05:18:53;;;;;;;31.48;3.60;;;8.20;99.90;;;;;;5058537;28;20557;-80
2022/11/26 05:21:19;;;;;;;25.10;3.75;;;8.10;99.90;;;;;;5061290;28;20469;-79
2022/11/26 05:23:44;;;;;;;34.92;4.70;;;8.10;99.90;;;;;;5063055;28;20040;-79
2022/11/26 05:26:10;;;;;;;29.25;3.38;;;8.10;99.90;;;;;;5056251;28;20070;-81
2022/11/26 05:28:38;;;;;;;18.98;4.18;;;8.10;99.90;;;;;;5058435;28;20111;-78
2022/11/26 05:31:05;;;;;;;15.40;2.80;;;8.10;99.90;;;;;;5058656;28;20032;-80
2022/11/26 05:33:31;;;;;;;16.35;3.30;;;8.00;99.90;;;;;;5065383;28;20032;-80
2022/11/26 05:35:56;;;;;;;29.17;4.35;;;8.00;99.90;;;;;;5062398;28;20031;-79
2022/11/26 05:38:22;;;;;;;21.95;5.68;;;8.00;99.90;;;;;;5059895;28;20033;-80
2022/11/26 05:40:48;;;;;;;23.48;4.93;;;8.00;99.90;;;;;;5054378;28;20393;-79
2022/11/26 05:43:14;;;;;;;28.45;3.42;;;7.90;99.90;;;;;;5061950;28;20032;-80
2022/11/26 05:45:40;;;;;;;36.03;4.05;;;8.00;99.90;;;;;;5057172;28;20027;-80
2022/11/26 05:48:05;;;;;;;36.78;4.63;;;8.00;99.90;;;;;;5064463;28;20028;-80
2022/11/26 05:50:32;;;;;;;19.73;3.38;;;8.00;99.90;;;;;;5066446;28;20542;-80
2022/11/26 05:52:58;;;;;;;21.98;4.22;;;8.00;99.90;;;;;;5061713;28;20037;-80
2022/11/26 05:55:24;;;;;;;15.50;2.80;;;8.00;99.90;;;;;;5060093;28;20115;-80
2022/11/26 05:57:50;;;;;;;14.45;3.00;;;8.00;99.90;;;;;;5055474;28;20045;-80
2022/11/26 06:00:16;;;;;;;7.97;2.28;;;7.90;99.90;;;;;;5060970;28;20032;-80
2022/11/26 06:02:41;;;;;;;23.40;3.30;;;7.80;99.90;;;;;;5065048;28;20056;-80
2022/11/26 06:05:07;;;;;;;28.73;4.35;;;7.80;99.90;;;;;;5053439;28;20029;-80
2022/11/26 06:07:33;;;;;;;30.70;3.25;;;7.70;99.90;;;;;;5052956;28;20394;-80
2022/11/26 06:09:59;;;;;;;13.52;4.05;;;7.70;99.90;;;;;;5057645;28;20027;-80
2022/11/26 06:12:24;;;;;;;16.00;4.28;;;7.80;99.90;;;;;;5055246;28;20026;-80
2022/11/26 06:14:50;;;;;;;20.98;4.70;;;7.70;99.90;;;;;;5057198;28;20055;-80
2022/11/26 06:17:16;;;;;;;24.80;7.35;;;7.60;99.90;;;;;;5061969;28;20478;-80
2022/11/26 06:19:41;;;;;;;13.90;4.80;;;7.60;99.90;;;;;;5051435;28;20044;-79
2022/11/26 06:22:07;;;;;;;14.15;4.38;;;7.50;99.90;;;;;;5055865;28;20033;-79
2022/11/26 06:24:33;;;;;;;16.33;3.92;;;7.50;99.90;;;;;;5059825;28;20111;-80
2022/11/26 06:26:58;;;;;;;20.85;4.40;;;7.40;99.90;;;;;;5060191;28;20082;-80
2022/11/26 06:29:24;;;;;;;13.23;4.07;;;7.30;99.90;;;;;;5057858;28;20024;-80
2022/11/26 06:31:50;;;;;;;13.07;3.63;;;7.20;99.90;;;;;;5058968;28;20074;-80
2022/11/26 06:34:16;;;;;;;12.65;4.00;;;7.10;99.90;;;;;;5055624;28;20029;-80
2022/11/26 06:36:41;;;;;;;16.02;2.92;;;7.10;99.90;;;;;;5059173;28;20029;-79
2022/11/26 06:39:09;;;;;;;19.65;4.30;;;7.00;99.90;;;;;;5055515;28;20067;-80
2022/11/26 06:41:34;;;;;;;16.95;3.25;;;6.90;99.90;;;;;;5051331;28;20040;-80
2022/11/26 06:44:00;;;;;;;16.63;3.13;;;6.80;99.90;;;;;;5055891;28;20086;-80
2022/11/26 06:46:26;;;;;;;9.77;3.10;;;6.80;99.90;;;;;;5050291;28;20045;-81
2022/11/26 06:48:52;;;;;;;12.95;3.35;;;6.70;99.90;;;;;;5057491;28;20523;-80
2022/11/26 06:51:20;;;;;;;7.47;3.13;;;6.70;99.90;;;;;;5052295;28;20021;-80
2022/11/26 06:53:47;;;;;;;12.13;3.10;;;6.60;99.90;;;;;;5056747;28;20457;-80
2022/11/26 06:56:15;;;;;;;12.38;2.42;;;6.50;99.90;;;;;;5051333;28;20284;-81
2022/11/26 06:58:41;;;;;;;13.13;3.00;;;6.40;99.90;;;;;;5065503;28;20361;-80
2022/11/26 07:01:22;;;;;;;14.85;3.35;;;6.40;99.90;;;;;;5062100;28;20032;-80
2022/11/26 07:03:48;;;;;;;8.38;3.15;;;6.30;99.90;;;;;;5058378;28;20032;-80
2022/11/26 07:06:23;;;;;;;12.10;2.35;;;6.20;99.90;;;;;;5059451;28;20402;-80
2022/11/26 07:08:50;;;;;;;11.02;2.55;;;6.10;99.90;;;;;;5058479;28;20040;-80
2022/11/26 07:11:16;;;;;;;20.30;3.22;;;6.00;99.90;;;;;;5062417;28;20549;-80
2022/11/26 07:13:42;;;;;;;16.40;3.97;;;6.10;99.90;;;;;;5059401;28;20120;-80
2022/11/26 07:16:07;;;;;;;19.13;4.18;;;6.30;99.90;;;;;;5062095;28;20063;-80
2022/11/26 07:18:33;;;;;;;23.70;4.18;;;6.40;99.90;;;;;;5054087;28;20077;-79
2022/11/26 07:21:10;;;;;;;23.17;5.00;;;6.40;99.90;;;;;;5055975;28;20457;-80
2022/11/26 07:23:36;;;;;;;20.80;4.45;;;6.40;99.90;;;;;;5066822;28;20039;-81
2022/11/26 07:26:03;;;;;;;22.50;5.70;;;6.50;99.90;;;;;;5060708;28;20374;-79
2022/11/26 07:28:29;;;;;;;20.20;4.07;;;6.50;99.90;;;;;;5063771;28;20495;-80
2022/11/26 07:31:02;;;;;;;18.95;3.97;;;6.50;99.90;;;;;;5063447;28;20024;-79
2022/11/26 07:33:28;;;;;;;19.95;3.90;;;6.60;99.90;;;;;;5059090;28;20024;-79
2022/11/26 07:35:58;;;;;;;15.48;3.53;;;6.60;99.90;;;;;;5063870;28;20040;-80
2022/11/26 07:38:24;;;;;;;20.70;3.30;;;6.60;99.90;;;;;;5062750;28;20603;-80
2022/11/26 07:40:49;;;;;;;18.25;3.75;;;6.60;99.90;;;;;;5064110;28;20036;-80
2022/11/26 07:43:15;;;;;;;18.42;3.85;;;6.50;99.90;;;;;;5062781;28;20032;-80
2022/11/26 07:45:40;;;;;;;22.92;4.00;;;6.50;99.90;;;;;;5059925;28;20052;-80
2022/11/26 07:48:06;;;;;;;19.10;3.83;;;6.50;99.90;;;;;;5063880;28;20072;-80
2022/11/26 07:50:32;;;;;;;12.68;2.63;;;6.50;99.90;;;;;;5055418;28;20040;-79
2022/11/26 07:52:57;;;;;;;17.75;5.18;;;6.50;99.90;;;;;;5062755;28;20496;-80
2022/11/26 07:55:23;;;;;;;19.83;3.70;;;6.40;99.90;;;;;;5061587;28;20488;-81
2022/11/26 07:57:49;;;;;;;23.63;3.78;;;6.60;99.90;;;;;;5061965;28;20044;-80
2022/11/26 08:00:15;;;;;;;15.02;4.25;;;6.70;99.90;;;;;;5061083;28;20123;-80
2022/11/26 08:02:40;;;;;;;17.10;3.75;;;6.90;99.90;;;;;;5055889;28;20265;-80
2022/11/26 08:05:09;;;;;;;27.27;3.88;;;7.00;99.90;;;;;;5056543;28;20037;-79
2022/11/26 08:07:35;;;;;;;24.65;3.83;;;7.10;99.90;;;;;;5060168;28;20041;-80
2022/11/26 08:10:03;;;;;;;16.38;3.55;;;7.20;99.90;;;;;;5060495;28;20033;-80
2022/11/26 08:12:28;;;;;;;19.00;4.50;;;7.30;99.90;;;;;;5063844;28;20099;-80
2022/11/26 08:14:54;;;;;;;21.08;4.18;;;7.40;99.90;;;;;;5058076;28;20474;-81
2022/11/26 08:17:21;;;;;;;18.73;3.67;;;7.40;99.90;;;;;;5055195;28;20025;-81
2022/11/26 08:19:46;;;;;;;17.67;3.63;;;7.40;99.90;;;;;;5057586;28;20074;-80
2022/11/26 08:22:12;;;;;;;33.38;5.70;;;7.40;99.90;;;;;;5060428;28;20032;-79
2022/11/26 08:24:38;;;;;;;23.73;4.15;;;7.40;99.90;;;;;;5059970;28;20064;-80
2022/11/26 08:27:04;;;;;;;24.80;4.53;;;7.40;99.90;;;;;;5058115;28;20028;-80
2022/11/26 08:29:29;;;;;;;21.42;3.70;;;7.50;99.90;;;;;;5059090;28;20033;-79
2022/11/26 08:31:55;;;;;;;28.45;5.25;;;7.50;99.90;;;;;;5057630;28;20037;-80
2022/11/26 08:34:21;;;;;;;28.52;4.57;;;7.60;99.90;;;;;;5058316;28;20461;-80
2022/11/26 08:36:46;;;;;;;22.20;4.43;;;7.60;99.90;;;;;;5051303;28;20523;-79
2022/11/26 08:39:13;;;;;;;22.60;4.03;;;7.60;99.90;;;;;;5058954;28;20436;-80
2022/11/26 08:41:39;;;;;;;20.40;4.20;;;7.70;99.90;;;;;;5061996;28;20024;-80
2022/11/26 08:44:04;;;;;;;32.17;4.57;;;7.70;99.90;;;;;;5061903;28;20092;-80
2022/11/26 08:46:30;;;;;;;17.02;3.58;;;7.70;99.90;;;;;;5062254;28;20020;-81
2022/11/26 08:48:56;;;;;;;25.15;4.40;;;7.80;99.90;;;;;;5058859;28;20028;-80
2022/11/26 08:51:23;;;;;;;21.45;4.10;;;7.80;99.90;;;;;;5058681;28;20440;-79
2022/11/26 08:53:49;;;;;;;27.25;4.97;;;7.80;99.90;;;;;;5063470;28;20040;-79
2022/11/26 08:56:16;;;;;;;18.90;4.63;;;7.90;99.90;;;;;;5063385;28;20025;-80
2022/11/26 08:58:47;;;;;;;23.63;4.63;;;7.90;99.90;;;;;;5056382;28;20106;-80
2022/11/26 09:01:25;;;;;;;18.92;3.90;;;7.90;99.90;;;;;;5059181;28;20036;-79
2022/11/26 09:03:56;;;;;;;27.17;4.70;;;7.90;99.90;;;;;;5056617;28;20052;-80
2022/11/26 09:06:23;;;;;;;24.63;4.72;;;8.00;99.90;;;;;;5061393;28;20032;-81
2022/11/26 09:11:37;;;;;;;29.70;4.28;;;8.00;99.90;;;;;;5060762;28;20123;-81
2022/11/26 09:14:04;;;;;;;19.45;4.40;;;8.10;99.90;;;;;;5059127;28;20024;-80
2022/11/26 09:16:30;;;;;;;19.95;4.32;;;8.10;99.90;;;;;;5054595;28;20108;-79
2022/11/26 09:18:58;;;;;;;21.23;3.70;;;8.10;99.90;;;;;;5058563;28;20143;-81
2022/11/26 09:21:23;;;;;;;16.15;3.40;;;8.20;99.90;;;;;;5055854;28;20044;-81
2022/11/26 09:23:49;;;;;;;17.50;4.13;;;8.20;99.90;;;;;;5054484;28;20029;-80
2022/11/26 09:26:20;;;;;;;24.33;4.32;;;8.30;99.90;;;;;;5059986;28;20027;-81
2022/11/26 09:28:49;;;;;;;26.25;4.40;;;8.30;99.90;;;;;;5060722;28;20036;-79
2022/11/26 09:31:15;;;;;;;21.02;4.32;;;8.30;99.90;;;;;;5058950;28;20289;-79
2022/11/26 09:33:41;;;;;;;16.20;4.10;;;8.40;99.90;;;;;;5061392;28;20492;-80
2022/11/26 09:36:12;;;;;;;26.90;4.65;;;8.40;99.90;;;;;;5060284;28;20020;-80
2022/11/26 09:38:39;;;;;;;18.08;3.75;;;8.50;99.90;;;;;;5058738;28;20049;-80
2022/11/26 09:41:16;;;;;;;22.25;3.80;;;8.50;99.90;;;;;;5059748;28;20120;-80
2022/11/26 09:43:56;;;;;;;21.67;4.15;;;8.50;99.90;;;;;;5060855;28;20476;-80
2022/11/26 09:46:44;;;;;;;20.77;4.55;;;8.40;99.90;;;;;;5062669;28;20465;-81
2022/11/26 09:49:13;;;;;;;24.65;4.55;;;8.50;99.90;;;;;;5057363;28;20027;-80
2022/11/26 09:51:43;;;;;;;20.83;4.32;;;8.50;99.90;;;;;;5060368;28;20032;-80
2022/11/26 09:54:16;;;;;;;21.60;4.22;;;8.50;99.90;;;;;;5054490;28;20027;-80
2022/11/26 09:56:42;;;;;;;19.70;4.88;;;8.50;99.90;;;;;;5054550;28;20053;-81
2022/11/26 09:59:12;;;;;;;28.83;5.47;;;8.40;99.90;;;;;;5056858;28;20063;-79
2022/11/26 10:01:39;;;;;;;20.48;4.65;;;8.50;99.90;;;;;;5059365;28;20405;-79
2022/11/26 10:04:22;;;;;;;19.77;5.47;;;8.50;99.90;;;;;;5060634;28;20520;-80
2022/11/26 10:07:09;;;;;;;23.27;5.60;;;8.60;99.90;;;;;;5059904;28;20031;-81
2022/11/26 10:09:37;;;;;;;16.63;3.97;;;8.60;99.90;;;;;;5058039;28;20036;-80
2022/11/26 10:12:23;;;;;;;22.45;4.50;;;8.60;99.90;;;;;;5058053;28;20020;-80
2022/11/26 10:15:07;;;;;;;18.92;4.43;;;8.60;99.90;;;;;;5057738;28;20033;-80
2022/11/26 10:17:39;;;;;;;24.42;3.92;;;8.70;99.90;;;;;;5056968;28;20085;-80
2022/11/26 10:20:05;;;;;;;21.40;4.28;;;8.70;99.90;;;;;;5063756;28;20044;-82
2022/11/26 10:22:31;;;;;;;22.45;4.35;;;8.80;99.90;;;;;;5055122;28;20032;-80
2022/11/26 10:24:58;;;;;;;16.15;3.67;;;8.90;99.90;;;;;;5052058;28;20039;-81
2022/11/26 10:27:29;;;;;;;14.20;3.22;;;8.90;99.90;;;;;;5056808;28;20025;-81
2022/11/26 10:30:21;;;;;;;19.48;4.10;;;9.00;99.90;;;;;;5055900;28;20055;-81
2022/11/26 10:32:49;;;;;;;17.42;3.58;;;9.10;99.90;;;;;;5060444;28;20048;-80
2022/11/26 10:35:20;;;;;;;31.05;6.75;;;9.10;99.90;;;;;;5062218;28;20025;-79
2022/11/26 10:37:46;;;;;;;25.13;5.03;;;9.20;99.90;;;;;;5063653;28;20510;-79
2022/11/26 10:40:26;;;;;;;22.63;4.20;;;9.20;99.90;;;;;;5065677;28;20041;-81
2022/11/26 10:43:07;;;;;;;18.00;4.75;;;9.20;99.90;;;;;;5061641;28;20041;-80
2022/11/26 10:45:48;;;;;;;23.25;4.45;;;9.30;99.90;;;;;;5066099;28;20103;-80
2022/11/26 10:48:33;;;;;;;20.20;5.68;;;9.30;99.90;;;;;;5065788;28;20033;-81
2022/11/26 10:51:05;;;;;;;16.67;4.93;;;9.30;99.90;;;;;;5057751;28;20370;-79
2022/11/26 10:53:54;;;;;;;24.92;4.47;;;9.30;99.90;;;;;;5060858;28;20074;-80
2022/11/26 10:56:24;;;;;;;15.25;4.55;;;9.30;99.90;;;;;;5061315;28;20036;-79
2022/11/26 10:58:52;;;;;;;24.67;5.65;;;9.30;99.90;;;;;;5060722;28;20056;-79
2022/11/26 11:01:18;;;;;;;12.50;3.97;;;9.30;99.90;;;;;;5055924;28;20429;-81
2022/11/26 11:03:56;;;;;;;16.05;4.38;;;9.40;99.90;;;;;;5059864;28;20497;-80
2022/11/26 11:06:41;;;;;;;24.60;5.00;;;9.40;99.90;;;;;;5062005;28;20520;-80
2022/11/26 11:09:28;;;;;;;18.10;4.25;;;9.40;99.90;;;;;;5059984;28;20047;-80
2022/11/26 11:12:14;;;;;;;25.00;5.05;;;9.40;99.90;;;;;;5065107;28;20049;-81
2022/11/26 11:14:40;;;;;;;;;;;9.40;99.90;;;;;;5063335;28;20043;-79
2022/11/26 11:17:17;;;;;;;16.10;4.70;;;9.40;99.90;;;;;;5061628;28;20276;-79
2022/11/26 11:19:43;;;;;;;23.77;4.53;;;9.40;99.90;;;;;;5063128;28;20044;-79
2022/11/26 11:22:19;;;;;;;17.27;5.03;;;9.50;99.90;;;;;;5063163;28;20078;-79
2022/11/26 11:24:47;;;;;;;25.27;4.68;;;9.50;99.90;;;;;;5051317;28;20393;-80
2022/11/26 11:27:24;;;;;;;17.10;5.05;;;9.50;99.90;;;;;;5062084;28;20032;-80
2022/11/26 11:29:51;;;;;;;26.30;6.03;;;9.60;99.90;;;;;;5063811;28;20039;-80
2022/11/26 11:32:36;;;;;;;18.30;4.45;;;9.70;99.90;;;;;;5062010;28;20025;-81
2022/11/26 11:35:18;;;;;;;24.23;6.65;;;9.60;99.90;;;;;;5059847;28;20025;-79
2022/11/26 11:37:50;;;;;;;20.35;7.15;;;9.60;99.90;;;;;;5055868;28;20040;-80
2022/11/26 11:40:23;;;;;;;29.60;10.20;;;9.60;99.90;;;;;;5063984;28;20400;-80
2022/11/26 11:42:52;;;;;;;39.50;13.20;;;9.60;99.90;;;;;;5059312;28;20044;-81
2022/11/26 11:45:23;;;;;;;19.65;5.85;;;9.60;99.90;;;;;;5064326;28;20056;-81
2022/11/26 11:47:55;;;;;;;17.92;6.00;;;9.70;99.90;;;;;;5058920;28;20477;-80
2022/11/26 11:50:42;;;;;;;18.90;6.13;;;9.70;99.90;;;;;;5053633;28;20025;-83
2022/11/26 11:53:31;;;;;;;24.50;5.88;;;9.70;99.90;;;;;;5062465;28;20025;-80
2022/11/26 11:56:27;;;;;;;21.60;6.13;;;9.60;99.90;;;;;;5058951;28;20021;-80
2022/11/26 11:59:12;;;;;;;19.02;5.35;;;9.60;99.90;;;;;;5062170;28;20056;-80
2022/11/26 12:01:41;;;;;;;19.65;6.05;;;9.60;99.90;;;;;;5058608;28;20025;-80
2022/11/26 12:04:44;;;;;;;24.13;5.93;;;9.60;99.90;;;;;;5063640;28;20389;-80
2022/11/26 12:07:23;;;;;;;17.45;5.70;;;9.60;99.90;;;;;;5062000;28;20040;-80
2022/11/26 12:10:09;;;;;;;16.13;5.32;;;9.60;99.90;;;;;;5060191;28;20029;-81
2022/11/26 12:12:43;;;;;;;20.02;5.50;;;9.60;99.90;;;;;;5055526;28;20032;-81
2022/11/26 12:15:17;;;;;;;20.08;5.53;;;9.60;99.90;;;;;;5057271;28;20032;-80
2022/11/26 12:17:59;;;;;;;17.00;4.97;;;9.70;99.90;;;;;;5059327;28;20035;-81
2022/11/26 12:20:42;;;;;;;17.23;5.10;;;9.70;99.90;;;;;;5063781;28;20041;-81
2022/11/26 12:23:20;;;;;;;18.38;5.35;;;9.60;99.90;;;;;;5059893;28;20017;-80
2022/11/26 12:26:09;;;;;;;14.63;4.68;;;9.60;99.90;;;;;;5061483;28;20493;-79
2022/11/26 12:28:47;;;;;;;26.52;5.72;;;9.50;99.90;;;;;;5066012;28;20466;-80
2022/11/26 12:31:25;;;;;;;20.05;7.40;;;9.60;99.90;;;;;;5065204;28;20029;-80
2022/11/26 12:33:59;;;;;;;26.42;5.60;;;9.50;99.90;;;;;;5062547;28;20031;-80
2022/11/26 12:36:39;;;;;;;11.23;3.65;;;9.60;99.90;;;;;;5056968;28;20029;-80
2022/11/26 12:39:17;;;;;;;20.92;5.13;;;9.50;99.90;;;;;;5058379;28;20044;-81
2022/11/26 12:41:51;;;;;;;15.93;5.15;;;9.60;99.90;;;;;;5056893;28;20058;-80
2022/11/26 12:44:34;;;;;;;27.52;6.53;;;9.60;99.90;;;;;;5053513;28;20379;-80
2022/11/26 12:47:39;;;;;;;13.80;4.75;;;9.60;99.90;;;;;;5060650;28;20411;-80
2022/11/26 12:50:22;;;;;;;20.90;5.97;;;9.70;99.90;;;;;;5052623;28;20042;-80
2022/11/26 12:53:02;;;;;;;24.73;5.57;;;9.60;99.90;;;;;;5060280;28;20059;-80
2022/11/26 12:56:01;;;;;;;20.58;5.15;;;9.60;99.90;;;;;;5059717;28;20473;-80
2022/11/26 12:58:43;;;;;;;27.33;5.53;;;9.50;99.90;;;;;;5047111;28;20036;-80
2022/11/26 13:01:10;;;;;;;29.90;5.10;;;9.60;99.90;;;;;;5061052;28;20024;-80
2022/11/26 13:03:36;;;;;;;24.70;6.40;;;9.70;99.90;;;;;;5064523;28;20032;-80
2022/11/26 13:06:18;;;;;;;23.25;6.22;;;9.70;99.90;;;;;;5060118;28;20028;-80